Terminal Aerodrome Forecast
Issued by NWS Wilmington, OH

Current Version | Previous Version | Graphics & Text | Print | Product List | Glossary On
Versions: 1 2 3 4 5 6 7 8 9 10 11 12 13 14 15 16 17 18 19 20 21 22 23 24 25 26 27
239
FTUS41 KILN 182104 AAA
TAFCVG
TAF AMD
KCVG 182104Z 1821/1924 07012KT P6SM -SHRA SCT025 OVC035
      TEMPO 1821/1824 4SM -SHRA BR OVC025
     FM190400 12008KT P6SM BKN050
     FM190900 16006KT P6SM OVC025
      TEMPO 1910/1914 OVC015
     FM191400 19009KT P6SM VCSH SCT015 BKN040
     FM191800 22012KT P6SM VCTS BKN050CB=

USA.gov is the U.S. government's official web portal to all federal, state and local government web resources and services.